createdAt,value
2023-11-19T00:00:02.951Z,168.99
2023-11-19T00:00:53.563Z,208.99
2023-11-19T00:01:33.114Z,163.99
2023-11-19T00:02:18.229Z,175.99
2023-11-19T00:03:03.472Z,175.99
2023-11-19T00:03:49.502Z,182.99
2023-11-19T00:04:33.471Z,191.99
2023-11-19T00:05:18.630Z,206.99
2023-11-19T00:06:03.691Z,220.99
2023-11-19T00:06:48.459Z,165.99
2023-11-19T00:07:35.621Z,148.99
2023-11-19T00:08:18.762Z,153.99
2023-11-19T00:09:03.860Z,124.99
2023-11-19T00:09:48.857Z,135.99
2023-11-19T00:10:34.031Z,170.99
2023-11-19T00:11:18.955Z,140.99
2023-11-19T00:12:04.207Z,121.99
2023-11-19T00:12:49.435Z,119.99
2023-11-19T00:13:33.924Z,131.99
2023-11-19T00:14:19.055Z,128.99
2023-11-19T00:15:04.217Z,133.99
2023-11-19T00:15:49.273Z,160.99
2023-11-19T00:16:34.285Z,166.99
2023-11-19T00:17:19.586Z,214.99
2023-11-19T00:18:04.672Z,132.99
2023-11-19T00:18:49.665Z,138.99
2023-11-19T00:19:34.643Z,156.99
2023-11-19T00:20:19.664Z,198.98
2023-11-19T00:21:04.621Z,199.99
2023-11-19T00:21:49.944Z,117.99
2023-11-19T00:22:34.663Z,183.99
2023-11-19T00:23:19.939Z,181.99
2023-11-19T00:24:05.005Z,190.99
2023-11-19T00:24:50.119Z,314.98
2023-11-19T00:25:35.150Z,297.98
2023-11-19T00:26:20.172Z,378.97
2023-11-19T00:27:05.043Z,487.96
2023-11-19T00:27:50.320Z,487.96
2023-11-19T00:28:35.381Z,73.99
2023-11-19T00:29:20.054Z,55.00
2023-11-19T00:30:05.369Z,51.00
2023-11-19T00:30:50.793Z,75.99
2023-11-19T00:31:36.443Z,56.00
2023-11-19T00:32:20.642Z,73.99
2023-11-19T00:33:05.382Z,62.00
2023-11-19T00:33:50.919Z,40.00
2023-11-19T00:34:35.703Z,30.00
2023-11-19T00:35:20.579Z,24.00
2023-11-19T00:36:05.708Z,30.00
2023-11-19T00:36:50.508Z,19.00
2023-11-19T00:37:35.820Z,11.00
2023-11-19T00:38:20.897Z,11.00
2023-11-19T00:39:05.547Z,9.00
2023-11-19T00:39:50.895Z,11.00
2023-11-19T00:40:36.119Z,11.00
2023-11-19T00:41:20.993Z,9.00
2023-11-19T00:42:05.961Z,9.00
2023-11-19T00:42:51.256Z,13.00
2023-11-19T00:43:36.390Z,10.00
2023-11-19T00:44:21.106Z,15.00
2023-11-19T00:45:06.216Z,11.00
2023-11-19T00:45:51.396Z,13.00
2023-11-19T00:46:36.514Z,9.00
2023-11-19T00:47:21.557Z,12.00
2023-11-19T00:48:06.324Z,9.00
2023-11-19T00:48:51.585Z,9.00
2023-11-19T00:49:36.756Z,10.00
2023-11-19T00:50:21.574Z,11.00
2023-11-19T00:51:06.675Z,17.00
2023-11-19T00:51:51.916Z,10.00
2023-11-19T00:52:36.970Z,8.00
2023-11-19T00:53:22.124Z,8.00
2023-11-19T00:54:06.657Z,8.00
2023-11-19T00:54:52.051Z,11.00
2023-11-19T00:56:21.931Z,8.00
2023-11-19T00:57:07.054Z,12.00
2023-11-19T00:57:52.495Z,12.00
2023-11-19T00:58:37.019Z,9.00
2023-11-19T00:59:22.271Z,8.00
2023-11-19T01:00:07.365Z,10.00
2023-11-19T01:00:52.420Z,16.00
2023-11-19T01:01:37.381Z,9.00
2023-11-19T01:02:22.714Z,11.00
2023-11-19T01:03:07.830Z,9.00
2023-11-19T01:03:52.640Z,10.00
2023-11-19T01:04:37.909Z,10.00
2023-11-19T01:05:23.858Z,18.00
2023-11-19T01:06:07.712Z,15.00
2023-11-19T01:06:52.959Z,18.00
2023-11-19T01:07:37.650Z,14.00
2023-11-19T01:08:23.048Z,12.00
2023-11-19T01:09:08.301Z,14.00
2023-11-19T01:09:52.985Z,13.00
2023-11-19T01:10:38.066Z,11.00
2023-11-19T01:11:23.268Z,6.00
2023-11-19T01:12:08.607Z,10.00
2023-11-19T01:12:53.560Z,9.00
2023-11-19T01:13:38.437Z,7.00
2023-11-19T01:14:23.198Z,9.00
2023-11-19T01:15:08.460Z,6.00
2023-11-19T01:15:53.911Z,9.00
2023-11-19T01:16:38.800Z,11.00
2023-11-19T01:17:23.628Z,10.00
2023-11-19T01:18:08.415Z,11.00
2023-11-19T01:18:57.907Z,11.00
2023-11-19T01:19:38.841Z,12.00
2023-11-19T01:20:23.997Z,12.00
2023-11-19T01:21:08.834Z,20.00
2023-11-19T01:21:54.038Z,17.00
2023-11-19T01:22:39.131Z,21.00
2023-11-19T01:23:24.214Z,48.00
2023-11-19T01:24:09.405Z,60.00
2023-11-19T01:24:54.301Z,67.00
2023-11-19T01:25:39.283Z,84.99
2023-11-19T01:26:24.331Z,118.99
2023-11-19T01:27:09.369Z,213.98
2023-11-19T01:27:54.336Z,286.98
2023-11-19T01:28:39.481Z,359.97
2023-11-19T01:29:24.738Z,407.97
2023-11-19T01:30:09.391Z,522.96
2023-11-19T01:30:54.380Z,426.97
2023-11-19T01:31:39.379Z,697.95
2023-11-19T01:32:40.013Z,697.95
2023-11-19T01:33:55.025Z,697.95
2023-11-19T01:34:39.773Z,1110.92
2023-11-19T01:35:26.097Z,1110.92
2023-11-19T01:36:11.677Z,874.92
2023-11-19T01:36:54.824Z,902.93
2023-11-19T01:37:39.605Z,986.91
2023-11-19T01:38:24.691Z,914.93
2023-11-19T01:39:10.446Z,914.93
2023-11-19T01:40:40.070Z,1100.92
2023-11-19T01:41:25.020Z,1113.92
2023-11-19T01:42:10.197Z,1116.92
2023-11-19T01:42:55.050Z,768.94
2023-11-19T01:43:40.226Z,860.94
2023-11-19T01:44:25.252Z,981.93
2023-11-19T01:45:10.335Z,815.88
2023-11-19T01:45:55.531Z,931.93
2023-11-19T01:46:40.393Z,1114.92
2023-11-19T01:47:25.590Z,1126.92
2023-11-19T01:48:10.590Z,1128.92
2023-11-19T01:48:55.620Z,1110.92
2023-11-19T01:49:40.533Z,837.94
2023-11-19T01:50:26.017Z,1114.92
2023-11-19T01:51:11.267Z,1124.83
2023-11-19T01:51:56.296Z,1115.83
2023-11-19T01:52:41.392Z,1115.83
2023-11-19T01:53:26.267Z,1115.83
2023-11-19T01:54:11.415Z,1095.92
2023-11-19T01:54:56.285Z,1112.92
2023-11-19T01:55:41.206Z,1105.92
2023-11-19T01:56:26.242Z,1106.92
2023-11-19T01:57:11.371Z,1111.92
2023-11-19T01:57:56.391Z,1103.92
2023-11-19T01:58:41.588Z,992.87
2023-11-19T01:59:26.504Z,1043.94
2023-11-19T02:00:11.660Z,877.95
2023-11-19T02:00:56.997Z,829.94
2023-11-19T02:01:41.902Z,754.96
2023-11-19T02:02:26.937Z,690.96
2023-11-19T02:03:11.963Z,948.94
2023-11-19T02:03:57.199Z,1053.94
2023-11-19T02:04:41.987Z,1034.94
2023-11-19T02:05:27.040Z,1041.94
2023-11-19T02:06:12.170Z,1055.94
2023-11-19T02:06:57.186Z,1059.94
2023-11-19T02:07:42.267Z,1071.94
2023-11-19T02:08:27.166Z,1050.94
2023-11-19T02:09:12.179Z,1082.94
2023-11-19T02:09:57.412Z,1057.94
2023-11-19T02:10:42.617Z,1052.94
2023-11-19T02:11:27.394Z,1073.94
2023-11-19T02:12:12.440Z,1069.42
2023-11-19T02:13:06.218Z,1096.94
2023-11-19T02:13:42.765Z,1071.39
2023-11-19T02:14:27.835Z,757.61
2023-11-19T02:15:12.672Z,1045.94
2023-11-19T02:15:57.884Z,1059.94
2023-11-19T02:16:42.824Z,1057.94
2023-11-19T02:17:27.978Z,1081.94
2023-11-19T02:18:13.129Z,1071.94
2023-11-19T02:18:58.102Z,526.50
2023-11-19T02:19:42.827Z,1048.94
2023-11-19T02:20:28.140Z,1053.94
2023-11-19T02:21:12.818Z,1041.94
2023-11-19T02:21:58.085Z,1060.94
2023-11-19T02:22:43.374Z,431.51
2023-11-19T02:23:28.145Z,416.68
2023-11-19T02:24:13.261Z,477.98
2023-11-19T02:24:58.350Z,472.98
2023-11-19T02:25:43.645Z,472.98
2023-11-19T02:26:28.425Z,472.98
2023-11-19T02:27:13.722Z,1050.95
2023-11-19T02:27:58.705Z,1050.95
2023-11-19T02:28:43.611Z,401.17
2023-11-19T02:29:28.595Z,401.17
2023-11-19T02:30:13.869Z,401.17
2023-11-19T02:30:59.021Z,401.17
2023-11-19T02:31:43.980Z,401.17
2023-11-19T02:32:29.463Z,401.17
2023-11-19T02:33:13.926Z,401.17
2023-11-19T02:33:59.102Z,401.17
2023-11-19T02:34:43.938Z,401.17
2023-11-19T02:35:29.494Z,401.17
2023-11-19T02:36:14.267Z,401.17
2023-11-19T02:36:59.652Z,401.17
2023-11-19T02:37:44.292Z,1047.95
2023-11-19T02:38:29.735Z,1047.95
2023-11-19T02:39:14.510Z,1047.95
2023-11-19T02:39:59.682Z,1047.95
2023-11-19T02:40:44.689Z,1047.95
2023-11-19T02:41:29.598Z,1047.95
2023-11-19T02:42:15.106Z,1047.95
2023-11-19T02:42:59.795Z,1047.95
2023-11-19T02:43:44.848Z,1047.95
2023-11-19T02:44:29.832Z,1047.95
2023-11-19T02:45:15.028Z,1047.95
2023-11-19T02:46:00.218Z,1047.95
2023-11-19T02:46:45.222Z,1047.95
2023-11-19T02:47:30.051Z,1047.95
2023-11-19T02:48:15.154Z,1047.95
2023-11-19T02:49:00.367Z,1047.95
2023-11-19T02:49:45.225Z,1047.95
2023-11-19T02:50:32.150Z,1047.95
2023-11-19T02:51:15.621Z,1047.95
2023-11-19T02:52:00.559Z,1047.95
2023-11-19T02:52:45.647Z,1047.95
2023-11-19T02:53:30.724Z,1047.95
2023-11-19T02:54:15.809Z,1047.95
2023-11-19T02:55:01.127Z,1047.95
2023-11-19T02:55:45.986Z,1047.95
2023-11-19T02:56:31.089Z,1047.95
2023-11-19T02:58:01.225Z,1047.95
2023-11-19T02:58:46.062Z,1047.95
2023-11-19T02:59:30.964Z,1047.95
2023-11-19T03:00:15.978Z,1047.95
2023-11-19T03:01:01.249Z,980.58
2023-11-19T03:01:46.155Z,1053.94
2023-11-19T03:02:31.409Z,846.05
2023-11-19T03:03:16.396Z,1082.94
2023-11-19T03:04:01.231Z,1082.48
2023-11-19T03:04:46.237Z,1048.53
2023-11-19T03:05:31.345Z,1067.86
2023-11-19T03:06:16.389Z,1086.90
2023-11-19T03:07:01.476Z,1112.32
2023-11-19T03:07:46.845Z,1117.93
2023-11-19T03:08:31.571Z,1116.93
2023-11-19T03:09:16.672Z,1120.93
2023-11-19T03:10:01.840Z,1119.93
2023-11-19T03:10:46.930Z,1108.94
2023-11-19T03:11:32.031Z,579.97
2023-11-19T03:12:17.092Z,1104.94
2023-11-19T03:13:01.647Z,492.97
2023-11-19T03:13:47.010Z,439.97
2023-11-19T03:14:32.053Z,502.97
2023-11-19T03:15:17.016Z,845.95
2023-11-19T03:16:02.111Z,261.98
2023-11-19T03:16:47.166Z,88.99
2023-11-19T03:17:32.188Z,85.99
2023-11-19T03:18:17.398Z,105.99
2023-11-19T03:19:02.127Z,73.00
2023-11-19T03:19:47.744Z,43.00
2023-11-19T03:20:32.507Z,49.00
2023-11-19T03:21:17.399Z,41.00
2023-11-19T03:22:02.730Z,31.00
2023-11-19T03:22:47.385Z,26.00
2023-11-19T03:23:32.593Z,25.00
2023-11-19T03:24:17.346Z,36.00
2023-11-19T03:25:02.413Z,45.00
2023-11-19T03:25:47.491Z,47.00
2023-11-19T03:26:32.910Z,34.00
2023-11-19T03:27:17.925Z,32.00
2023-11-19T03:28:02.904Z,36.00
2023-11-19T03:28:48.033Z,32.00
2023-11-19T03:29:32.740Z,31.00
2023-11-19T03:30:18.005Z,39.00
2023-11-19T03:31:02.892Z,76.99
2023-11-19T03:31:47.924Z,30.00
2023-11-19T03:32:33.346Z,38.00
2023-11-19T03:33:18.498Z,28.00
2023-11-19T03:34:03.168Z,28.00
2023-11-19T03:34:48.331Z,23.00
2023-11-19T03:35:33.065Z,34.99
2023-11-19T03:36:18.439Z,29.00
2023-11-19T03:37:03.669Z,25.00
2023-11-19T03:37:48.506Z,30.00
2023-11-19T03:38:33.603Z,26.00
2023-11-19T03:39:18.430Z,31.00
2023-11-19T03:40:03.724Z,58.99
2023-11-19T03:40:48.803Z,69.99
2023-11-19T03:42:18.626Z,61.99
2023-11-19T03:43:03.604Z,92.99
2023-11-19T03:43:48.696Z,99.99
2023-11-19T03:44:34.056Z,95.99
2023-11-19T03:45:18.745Z,116.98
2023-11-19T03:46:04.190Z,127.98
2023-11-19T03:46:49.064Z,84.99
2023-11-19T03:47:34.080Z,76.99
2023-11-19T03:48:19.111Z,89.99
2023-11-19T03:49:04.321Z,104.98
2023-11-19T03:49:49.083Z,138.98
2023-11-19T03:50:34.265Z,110.98
2023-11-19T03:51:19.441Z,130.98
2023-11-19T03:52:04.227Z,143.98
2023-11-19T03:52:49.708Z,143.98
2023-11-19T03:53:34.773Z,100.99
2023-11-19T03:54:19.465Z,97.99
2023-11-19T03:55:04.628Z,116.98
2023-11-19T03:55:49.891Z,143.98
2023-11-19T03:56:34.888Z,115.98
2023-11-19T03:57:19.852Z,92.99
2023-11-19T03:58:05.133Z,107.98
2023-11-19T03:58:49.671Z,108.98
2023-11-19T03:59:34.908Z,80.99
2023-11-19T04:00:20.192Z,90.99
2023-11-19T04:01:05.038Z,173.96
2023-11-19T04:01:50.236Z,131.98
2023-11-19T04:02:35.271Z,135.97
2023-11-19T04:03:20.282Z,113.98
2023-11-19T04:04:05.254Z,114.98
2023-11-19T04:04:50.602Z,88.98
2023-11-19T04:05:35.607Z,92.97
2023-11-19T04:06:20.302Z,97.98
2023-11-19T04:07:51.130Z,132.97
2023-11-19T04:07:58.536Z,91.98
2023-11-19T04:08:36.343Z,88.98
2023-11-19T04:09:21.139Z,81.98
2023-11-19T04:10:06.300Z,89.98
2023-11-19T04:10:51.437Z,90.98
2023-11-19T04:11:36.230Z,67.99
2023-11-19T04:12:21.431Z,57.99
2023-11-19T04:13:06.139Z,69.99
2023-11-19T04:13:51.341Z,80.99
2023-11-19T04:14:36.210Z,64.99
2023-11-19T04:15:21.342Z,81.98
2023-11-19T04:16:06.705Z,62.99
2023-11-19T04:16:51.386Z,59.98
2023-11-19T04:17:36.474Z,55.99
2023-11-19T04:18:21.903Z,56.99
2023-11-19T04:19:06.548Z,105.98
2023-11-19T04:19:51.805Z,118.98
2023-11-19T04:20:36.856Z,85.98
2023-11-19T04:21:21.991Z,76.99
2023-11-19T04:22:06.780Z,73.99
2023-11-19T04:22:52.423Z,80.98
2023-11-19T04:23:37.181Z,82.98
2023-11-19T04:24:21.956Z,110.98
2023-11-19T04:25:07.428Z,96.98
2023-11-19T04:25:52.200Z,134.98
2023-11-19T04:26:37.274Z,175.97
2023-11-19T04:27:22.059Z,200.94
2023-11-19T04:28:07.168Z,232.96
2023-11-19T04:28:52.485Z,229.94
2023-11-19T04:29:37.535Z,229.96
2023-11-19T04:30:22.696Z,203.94
2023-11-19T04:31:07.877Z,164.97
2023-11-19T04:31:52.453Z,173.95
2023-11-19T04:32:37.555Z,174.97
2023-11-19T04:33:22.661Z,178.97
2023-11-19T04:34:08.395Z,216.96
2023-11-19T04:34:52.951Z,216.96
2023-11-19T04:35:38.017Z,258.95
2023-11-19T04:36:22.742Z,229.96
2023-11-19T04:37:53.102Z,203.96
2023-11-19T04:38:38.334Z,227.96
2023-11-19T04:39:23.060Z,189.96
2023-11-19T04:40:08.730Z,217.96
2023-11-19T04:40:53.503Z,217.96
2023-11-19T04:41:38.334Z,195.96
2023-11-19T04:42:23.512Z,178.97
2023-11-19T04:43:08.763Z,192.96
2023-11-19T04:43:53.349Z,200.96
2023-11-19T04:44:38.664Z,189.96
2023-11-19T04:45:23.930Z,189.96
2023-11-19T04:46:08.699Z,227.96
2023-11-19T04:46:53.987Z,256.95
2023-11-19T04:47:39.084Z,229.96
2023-11-19T04:48:23.746Z,244.95
2023-11-19T04:49:09.020Z,240.96
2023-11-19T04:49:54.285Z,228.96
2023-11-19T04:50:38.880Z,244.95
2023-11-19T04:51:24.048Z,213.96
2023-11-19T04:52:09.082Z,240.96
2023-11-19T04:52:54.143Z,227.96
2023-11-19T04:53:39.490Z,221.96
2023-11-19T04:54:24.156Z,200.96
2023-11-19T04:55:09.315Z,185.97
2023-11-19T04:55:55.003Z,247.93
2023-11-19T04:56:39.562Z,193.96
2023-11-19T04:57:24.453Z,171.97
2023-11-19T04:58:09.736Z,205.96
2023-11-19T04:58:54.763Z,212.96
2023-11-19T04:59:39.506Z,211.96
2023-11-19T05:00:25.046Z,197.96
2023-11-19T05:01:10.139Z,188.97
2023-11-19T05:01:54.681Z,207.96
2023-11-19T05:02:40.053Z,182.97
2023-11-19T05:03:25.237Z,180.97
2023-11-19T05:04:10.572Z,205.98
2023-11-19T05:04:55.513Z,213.98
2023-11-19T05:05:40.464Z,210.96
2023-11-19T05:06:25.621Z,225.97
2023-11-19T05:07:10.326Z,231.95
2023-11-19T05:07:55.845Z,228.97
2023-11-19T05:08:40.622Z,250.96
2023-11-19T05:09:25.598Z,224.97
2023-11-19T05:10:10.654Z,254.93
2023-11-19T05:10:55.624Z,276.95
2023-11-19T05:11:51.567Z,175.97
2023-11-19T05:12:25.716Z,234.96
2023-11-19T05:13:11.039Z,234.96
2023-11-19T05:13:55.866Z,221.96
2023-11-19T05:14:40.930Z,240.96
2023-11-19T05:15:26.011Z,243.96
2023-11-19T05:16:10.895Z,243.96
2023-11-19T05:16:56.203Z,98.98
2023-11-19T05:17:41.321Z,33.99
2023-11-19T05:18:26.253Z,45.99
2023-11-19T05:19:11.402Z,43.99
2023-11-19T05:19:56.752Z,41.99
2023-11-19T05:20:41.510Z,41.99
2023-11-19T05:21:26.447Z,44.99
2023-11-19T05:22:11.915Z,37.99
2023-11-19T05:22:56.767Z,42.99
2023-11-19T05:23:41.991Z,35.99
2023-11-19T05:24:26.902Z,43.99
2023-11-19T05:25:11.814Z,41.99
2023-11-19T05:25:56.601Z,68.99
2023-11-19T05:26:41.782Z,33.99
2023-11-19T05:27:27.066Z,38.99
2023-11-19T05:28:11.994Z,38.99
2023-11-19T05:28:56.771Z,40.99
2023-11-19T05:29:41.923Z,40.99
2023-11-19T05:30:27.126Z,37.99
2023-11-19T05:31:12.308Z,33.00
2023-11-19T05:31:57.527Z,33.00
2023-11-19T05:32:42.412Z,35.99
2023-11-19T05:33:27.136Z,30.00
2023-11-19T05:34:12.592Z,38.99
2023-11-19T05:34:57.427Z,45.99
2023-11-19T05:35:42.598Z,40.99
2023-11-19T05:36:27.586Z,39.99
2023-11-19T05:37:12.730Z,37.99
2023-11-19T05:37:57.590Z,34.99
2023-11-19T05:38:42.682Z,41.99
2023-11-19T05:39:27.937Z,39.99
2023-11-19T05:40:13.038Z,41.99
2023-11-19T05:40:57.959Z,71.98
2023-11-19T05:41:42.876Z,38.99
2023-11-19T05:42:28.030Z,37.99
2023-11-19T05:43:13.077Z,36.99
2023-11-19T05:43:57.841Z,43.99
2023-11-19T05:44:42.947Z,52.99
2023-11-19T05:45:28.016Z,53.99
2023-11-19T05:46:58.407Z,47.99
2023-11-19T05:47:43.231Z,37.99
2023-11-19T05:48:28.056Z,43.99
2023-11-19T05:49:13.562Z,40.99
2023-11-19T05:49:58.561Z,48.99
2023-11-19T05:50:43.444Z,70.99
2023-11-19T05:51:28.527Z,83.99
2023-11-19T05:52:13.785Z,95.99
2023-11-19T05:52:58.547Z,89.99
2023-11-19T05:53:43.859Z,114.98
2023-11-19T05:54:30.356Z,167.98
2023-11-19T05:55:14.339Z,191.97
2023-11-19T05:55:58.974Z,243.96
2023-11-19T05:56:43.490Z,191.97
2023-11-19T05:57:28.963Z,205.97
2023-11-19T05:58:14.169Z,205.97
2023-11-19T05:58:59.025Z,170.97
2023-11-19T05:59:44.030Z,150.98
2023-11-19T06:00:29.306Z,137.97
2023-11-19T06:01:14.243Z,142.98
2023-11-19T06:01:59.255Z,198.97
2023-11-19T06:02:44.327Z,208.97
2023-11-19T06:03:29.873Z,222.97
2023-11-19T06:04:14.521Z,189.97
2023-11-19T06:04:59.546Z,209.97
2023-11-19T06:05:44.793Z,223.97
2023-11-19T06:06:29.642Z,215.97
2023-11-19T06:07:14.313Z,240.96
2023-11-19T06:07:59.757Z,242.96
2023-11-19T06:08:45.116Z,240.96
2023-11-19T06:09:29.647Z,237.96
2023-11-19T06:10:14.760Z,227.97
2023-11-19T06:10:59.886Z,309.95
2023-11-19T06:11:44.833Z,222.97
2023-11-19T06:12:29.932Z,253.96
2023-11-19T06:13:15.170Z,222.97
2023-11-19T06:13:59.955Z,219.97
2023-11-19T06:14:45.046Z,215.97
2023-11-19T06:15:30.326Z,163.98
2023-11-19T06:16:15.474Z,202.97
2023-11-19T06:17:00.522Z,157.98
2023-11-19T06:17:45.263Z,155.98
2023-11-19T06:18:30.425Z,134.98
2023-11-19T06:19:15.648Z,128.97
2023-11-19T06:20:00.664Z,122.98
2023-11-19T06:20:45.363Z,152.98
2023-11-19T06:21:30.531Z,145.98
2023-11-19T06:22:15.671Z,161.98
2023-11-19T06:23:00.632Z,161.98
2023-11-19T06:23:45.953Z,170.97
2023-11-19T06:24:30.556Z,179.97
2023-11-19T06:25:15.829Z,174.97
2023-11-19T06:26:01.020Z,281.96
2023-11-19T06:26:45.660Z,177.97
2023-11-19T06:27:30.928Z,189.97
2023-11-19T06:28:16.030Z,182.97
2023-11-19T06:29:01.099Z,180.97
2023-11-19T06:29:46.264Z,194.96
2023-11-19T06:30:31.353Z,190.97
2023-11-19T06:31:16.121Z,179.97
2023-11-19T06:32:14.495Z,183.97
2023-11-19T06:32:46.595Z,202.95
2023-11-19T06:33:31.384Z,180.97
2023-11-19T06:34:16.401Z,210.97
2023-11-19T06:35:01.652Z,179.97
2023-11-19T06:35:46.860Z,214.97
2023-11-19T06:36:31.923Z,176.97
2023-11-19T06:37:16.993Z,188.96
2023-11-19T06:38:01.757Z,191.97
2023-11-19T06:38:46.721Z,195.97
2023-11-19T06:39:31.926Z,186.97
2023-11-19T06:40:16.958Z,195.97
2023-11-19T06:41:02.044Z,243.96
2023-11-19T06:41:47.211Z,184.97
2023-11-19T06:42:31.922Z,180.97
2023-11-19T06:43:17.336Z,164.98
2023-11-19T06:44:02.137Z,167.98
2023-11-19T06:44:47.072Z,176.97
2023-11-19T06:45:32.504Z,172.97
2023-11-19T06:46:17.396Z,188.97
2023-11-19T06:47:02.295Z,177.97
2023-11-19T06:47:47.721Z,191.97
2023-11-19T06:48:32.411Z,161.98
2023-11-19T06:49:17.620Z,169.97
2023-11-19T06:50:02.308Z,453.93
2023-11-19T06:50:47.255Z,416.90
2023-11-19T06:51:32.259Z,1109.80
2023-11-19T06:52:17.270Z,1112.79
2023-11-19T06:53:02.683Z,1112.79
2023-11-19T06:53:47.702Z,1112.79
2023-11-19T06:54:32.634Z,734.89
2023-11-19T06:55:17.665Z,851.84
2023-11-19T06:56:02.873Z,851.84
2023-11-19T06:56:48.774Z,456.93
2023-11-19T06:57:32.735Z,432.92
2023-11-19T06:58:18.101Z,512.91
2023-11-19T06:59:02.754Z,706.87
2023-11-19T06:59:48.130Z,706.87
2023-11-19T07:00:32.825Z,522.92
2023-11-19T07:01:18.123Z,522.92
2023-11-19T07:02:03.006Z,663.88
2023-11-19T07:02:48.092Z,663.88
2023-11-19T07:03:33.151Z,822.85
2023-11-19T07:04:18.013Z,838.85
2023-11-19T07:05:03.175Z,934.83
2023-11-19T07:05:48.305Z,994.82
2023-11-19T07:06:35.680Z,994.82
2023-11-19T07:07:18.211Z,534.90
2023-11-19T07:08:03.390Z,468.91
2023-11-19T07:08:48.464Z,996.82
2023-11-19T07:09:33.500Z,726.87
2023-11-19T07:10:19.257Z,726.87
2023-11-19T07:11:04.604Z,726.87
2023-11-19T07:11:49.521Z,726.87
2023-11-19T07:12:34.440Z,726.87
2023-11-19T07:13:19.096Z,726.87
2023-11-19T07:14:04.242Z,1106.84
2023-11-19T07:14:49.240Z,1102.80
2023-11-19T07:15:33.954Z,1098.80
2023-11-19T07:16:21.451Z,1098.80
2023-11-19T07:17:04.405Z,1023.81
2023-11-19T07:18:02.157Z,1103.80
2023-11-19T07:18:34.501Z,709.87
2023-11-19T07:19:19.221Z,629.88
2023-11-19T07:20:04.505Z,692.87
2023-11-19T07:20:49.690Z,667.88
2023-11-19T07:21:34.436Z,751.89
2023-11-19T07:22:19.841Z,713.89
2023-11-19T07:23:04.893Z,758.89
2023-11-19T07:23:49.579Z,660.90
2023-11-19T07:24:35.019Z,523.92
2023-11-19T07:25:20.080Z,546.92
2023-11-19T07:26:04.816Z,675.90
2023-11-19T07:26:49.939Z,490.93
2023-11-19T07:27:34.708Z,350.95
2023-11-19T07:28:20.079Z,392.94
2023-11-19T07:29:05.118Z,389.94
2023-11-19T07:29:50.342Z,588.91
2023-11-19T07:30:35.802Z,633.91
2023-11-19T07:31:20.276Z,563.87
2023-11-19T07:32:05.466Z,533.92
2023-11-19T07:32:50.270Z,566.92
2023-11-19T07:33:35.540Z,563.92
2023-11-19T07:34:20.493Z,742.83
2023-11-19T07:35:05.510Z,777.88
2023-11-19T07:35:51.017Z,864.87
2023-11-19T07:36:35.536Z,663.90
2023-11-19T07:37:20.481Z,795.88
2023-11-19T07:38:06.021Z,809.88
2023-11-19T07:38:50.980Z,826.88
2023-11-19T07:39:35.785Z,729.89
2023-11-19T07:40:21.018Z,797.88
2023-11-19T07:41:05.883Z,821.88
2023-11-19T07:41:50.869Z,740.89
2023-11-19T07:42:36.188Z,706.90
2023-11-19T07:43:20.853Z,700.90
2023-11-19T07:44:06.005Z,709.89
2023-11-19T07:44:51.393Z,696.87
2023-11-19T07:45:36.102Z,743.86
2023-11-19T07:46:21.236Z,700.87
2023-11-19T07:47:06.484Z,665.88
2023-11-19T07:47:51.360Z,754.89
2023-11-19T07:48:36.467Z,764.89
2023-11-19T07:49:21.525Z,842.81
2023-11-19T07:50:06.326Z,876.87
2023-11-19T07:50:51.738Z,912.86
2023-11-19T07:51:36.591Z,778.88
2023-11-19T07:52:22.563Z,814.85
2023-11-19T07:53:06.959Z,890.84
2023-11-19T07:53:52.121Z,907.83
2023-11-19T07:54:36.999Z,800.88
2023-11-19T07:55:22.498Z,785.86
2023-11-19T07:56:07.256Z,805.85
2023-11-19T07:56:51.889Z,824.85
2023-11-19T07:57:37.164Z,810.85
2023-11-19T07:58:22.540Z,796.78
2023-11-19T07:59:07.494Z,829.85
2023-11-19T07:59:52.344Z,816.85
2023-11-19T08:00:37.443Z,815.85
2023-11-19T08:01:22.252Z,735.86
2023-11-19T08:02:07.482Z,752.86
2023-11-19T08:02:52.585Z,801.78
2023-11-19T08:03:37.881Z,721.87
2023-11-19T08:04:23.026Z,800.85
2023-11-19T08:05:07.942Z,799.85
2023-11-19T08:05:52.785Z,799.85
2023-11-19T08:06:37.731Z,768.86
2023-11-19T08:07:22.967Z,768.86
2023-11-19T08:08:07.845Z,847.84
2023-11-19T08:08:53.455Z,966.73
2023-11-19T08:09:38.332Z,889.84
2023-11-19T08:10:23.035Z,889.84
2023-11-19T08:11:07.970Z,861.84
2023-11-19T08:11:53.027Z,861.84
2023-11-19T08:12:38.072Z,807.82
2023-11-19T08:13:23.363Z,862.80
2023-11-19T08:14:08.837Z,826.85
2023-11-19T08:14:53.288Z,826.85
2023-11-19T08:15:38.408Z,798.82
2023-11-19T08:16:23.648Z,746.83
2023-11-19T08:17:08.464Z,723.84
2023-11-19T08:17:53.802Z,752.74
2023-11-19T08:18:38.944Z,706.84
2023-11-19T08:19:23.877Z,707.84
2023-11-19T08:20:08.875Z,793.82
2023-11-19T08:20:54.129Z,854.81
2023-11-19T08:21:38.723Z,706.84
2023-11-19T08:22:23.967Z,696.84
2023-11-19T08:23:08.809Z,803.82
2023-11-19T08:23:53.989Z,822.81
2023-11-19T08:24:39.134Z,819.77
2023-11-19T08:25:24.612Z,837.77
2023-11-19T08:26:09.350Z,749.79
2023-11-19T08:27:39.279Z,732.75
2023-11-19T08:28:24.321Z,730.80
2023-11-19T08:29:09.486Z,735.79
2023-11-19T08:29:54.297Z,783.78
2023-11-19T08:30:39.418Z,782.73
2023-11-19T08:31:24.716Z,733.75
2023-11-19T08:32:09.775Z,717.75
2023-11-19T08:32:54.758Z,729.75
2023-11-19T08:33:39.739Z,746.74
2023-11-19T08:34:24.661Z,725.75
2023-11-19T08:35:10.088Z,706.57
2023-11-19T08:35:55.073Z,745.74
2023-11-19T08:36:39.882Z,692.76
2023-11-19T08:37:26.656Z,681.77
2023-11-19T08:38:09.856Z,707.76
2023-11-19T08:38:55.102Z,759.74
2023-11-19T08:39:40.193Z,757.62
2023-11-19T08:40:24.976Z,713.64
2023-11-19T08:41:10.222Z,651.67
2023-11-19T08:41:55.517Z,578.71
2023-11-19T08:42:40.343Z,635.68
2023-11-19T08:43:25.583Z,643.67
2023-11-19T08:44:10.660Z,629.68
2023-11-19T08:44:55.341Z,639.61
2023-11-19T08:45:40.847Z,633.61
2023-11-19T08:46:25.709Z,668.59
2023-11-19T08:47:12.166Z,683.58
2023-11-19T08:47:55.837Z,655.60
2023-11-19T08:48:41.057Z,628.54
2023-11-19T08:49:25.665Z,665.51
2023-11-19T08:50:11.079Z,713.47
2023-11-19T08:50:55.736Z,715.24
2023-11-19T08:51:40.798Z,683.50
2023-11-19T08:52:26.063Z,670.51
2023-11-19T08:53:10.927Z,704.48
2023-11-19T08:53:56.092Z,722.47
2023-11-19T08:54:41.347Z,768.43
2023-11-19T08:55:26.073Z,740.45
2023-11-19T08:56:11.443Z,714.47
2023-11-19T08:56:56.422Z,676.50
2023-11-19T08:57:41.084Z,726.46
2023-11-19T08:58:26.416Z,705.48
2023-11-19T08:59:11.277Z,781.42
2023-11-19T08:59:56.485Z,791.42
2023-11-19T09:00:41.642Z,830.39
2023-11-19T09:01:26.421Z,828.39
2023-11-19T09:02:11.575Z,832.39
2023-11-19T09:02:56.822Z,892.34
2023-11-19T09:03:41.757Z,925.32
2023-11-19T09:04:26.733Z,881.35
2023-11-19T09:05:12.353Z,939.01
2023-11-19T09:05:56.745Z,988.27
2023-11-19T09:06:41.910Z,841.38
2023-11-19T09:07:27.056Z,836.38
2023-11-19T09:08:11.978Z,993.27
2023-11-19T09:08:57.124Z,1043.23
2023-11-19T09:09:42.218Z,1058.22
2023-11-19T09:10:27.512Z,982.28
2023-11-19T09:11:12.325Z,1027.24
2023-11-19T09:11:57.447Z,1013.25
2023-11-19T09:12:42.487Z,978.28
2023-11-19T09:13:27.417Z,955.30
2023-11-19T09:14:12.598Z,1112.18
2023-11-19T09:14:57.263Z,1089.20
2023-11-19T09:15:42.674Z,1078.76
2023-11-19T09:16:27.656Z,1088.20
2023-11-19T09:17:12.580Z,1085.20
2023-11-19T09:17:57.776Z,1071.21
2023-11-19T09:18:42.736Z,1088.20
2023-11-19T09:19:27.852Z,1094.19
2023-11-19T09:20:12.692Z,1102.19
2023-11-19T09:20:57.951Z,1093.19
2023-11-19T09:21:42.608Z,1086.20
2023-11-19T09:22:27.703Z,1081.20
2023-11-19T09:23:12.978Z,1097.19
2023-11-19T09:23:57.670Z,1102.19
2023-11-19T09:24:42.996Z,1076.21
2023-11-19T09:25:28.061Z,1099.19
2023-11-19T09:26:12.996Z,1093.19
2023-11-19T09:26:58.423Z,1104.19
2023-11-19T09:27:43.005Z,1099.19
2023-11-19T09:28:28.211Z,1088.20
2023-11-19T09:29:13.197Z,1074.21
2023-11-19T09:29:58.226Z,1098.19